Latest Weather Observations for Avalon

IDV60901

Issued at 10:41 am EDT Monday 27 February 2017 (issued every 10 minutes, with the page automatically refreshed every 10 minutes)

About weather observations | Map of Melbourne area stations | Latest observations for Melbourne area | Other Formats
Station Details ID: 087113 Name: AVALON AIRPORT Lat: -38.03 Lon: 144.48 Height: 10.6 m
Data from the previous 72 hours. | See also: Recent months at Avalon
Date/Time
EDT
Temp
°C
App
Temp
°C
Dew
Point
°C
Rel
Hum
%
Delta-T
°C
Wind Press
QNH
hPa
Press
MSL
hPa
Rain since
9am
mm
Dir  Spd
km/h
Gust
km/h
Spd
kts
Gust
kts
27/10:30am 24.2 24.4 14.6 55 5.7 NNE 7 11 4 6 1022.5 1022.5 0.0
27/10:00am 23.1 23.8 16.2 65 4.2 E 7 11 4 6 1022.5 1022.5 0.0
27/09:30am 21.0 21.3 16.0 73 3.0 ESE 9 13 5 7 1022.5 1022.5 0.0
27/09:00am 19.2 21.1 16.6 85 1.6 SSW 2 9 1 5 1022.6 1022.6 0.0
27/08:30am 17.0 17.6 15.9 93 0.6 W 7 9 4 5 1022.5 1022.5 0.0
27/08:00am 15.3 15.6 15.1 99 0.1 WNW 7 11 4 6 1022.3 1022.3 0.0
27/07:30am 13.7 12.7 13.5 99 0.1 WNW 11 15 6 8 1022.0 1022.0 0.0
27/07:00am 13.4 12.7 13.2 99 0.1 NNW 9 11 5 6 1021.8 1021.8 0.0
27/06:30am 13.6 13.3 13.3 98 0.2 WNW 7 9 4 5 1021.4 1021.4 0.0
27/06:00am 13.6 14.2 13.1 97 0.3 WSW 2 6 1 3 1021.0 1021.0 0.0
27/05:30am 14.3 14.1 13.5 95 0.4 SSW 7 9 4 5 1020.8 1020.8 0.0
27/05:00am 14.9 14.2 14.4 97 0.3 S 11 11 6 6 1020.5 1020.5 0.0
27/04:30am 15.0 14.4 14.5 97 0.3 S 11 11 6 6 1020.5 1020.5 0.0
27/04:00am 15.0 14.6 14.2 95 0.5 S 9 11 5 6 1020.5 1020.5 0.0
27/03:30am 15.6 15.3 14.3 92 0.7 SE 9 11 5 6 1020.6 1020.6 0.0
27/03:00am 16.1 15.5 14.6 91 0.9 ESE 11 13 6 7 1020.7 1020.7 0.0
27/02:30am 16.2 15.1 14.2 88 1.1 ESE 13 15 7 8 1020.7 1020.7 0.0
27/02:00am 16.7 16.6 13.8 83 1.6 ESE 7 9 4 5 1020.8 1020.8 0.0
27/01:30am 17.7 16.6 14.4 81 1.9 E 13 17 7 9 1020.7 1020.7 0.0
27/01:00am 18.1 16.6 14.2 78 2.2 E 15 19 8 10 1020.6 1020.6 0.0
27/12:30am 18.5 16.0 14.2 76 2.5 E 20 24 11 13 1020.6 1020.6 0.0
27/12:00am 18.7 16.2 14.2 75 2.6 E 20 26 11 14 1020.6 1020.6 0.0
 
Date/Time
EDT
Temp
°C
App
Temp
°C
Dew
Point
°C
Rel
Hum
%
Delta-T
°C
Wind Press
QNH
hPa
Press
MSL
hPa
Rain since
9am
mm
Dir  Spd
km/h
Gust
km/h
Spd
kts
Gust
kts
26/11:30pm 19.2 15.9 14.0 72 3.0 E 24 30 13 16 1020.8 1020.8 0.0
26/11:00pm 19.7 16.4 13.9 69 3.3 E 24 30 13 16 1020.9 1020.9 0.0
26/10:30pm 20.1 16.8 14.0 68 3.5 E 24 32 13 17 1020.8 1020.8 0.0
26/10:00pm 20.7 17.4 14.1 66 3.8 E 24 32 13 17 1020.6 1020.6 0.0
26/09:30pm 21.5 17.9 14.2 63 4.3 E 26 37 14 20 1020.2 1020.2 0.0
26/09:00pm 21.9 19.2 14.5 63 4.3 E 22 28 12 15 1019.9 1019.9 0.0
26/08:30pm 21.7 21.4 15.5 68 3.7 ESE 11 13 6 7 1019.6 1019.6 0.0
26/08:00pm 23.6 22.4 15.1 59 5.1 SE 15 20 8 11 1019.2 1019.2 0.0
26/07:30pm 25.4 23.4 13.9 49 6.8 SE 17 20 9 11 1019.0 1019.0 0.0
26/07:00pm 26.4 23.8 13.9 46 7.4 SSE 20 24 11 13 1018.8 1018.8 0.0
26/06:30pm 26.9 23.9 13.6 44 7.9 SE 22 30 12 16 1018.5 1018.5 0.0
26/06:00pm 27.5 24.5 13.8 43 8.1 SE 22 28 12 15 1018.5 1018.5 0.0
26/05:30pm 27.0 23.9 13.4 43 8.0 SE 22 28 12 15 1018.4 1018.4 0.0
26/05:00pm 27.9 24.4 13.4 40 8.6 SE 24 30 13 16 1018.4 1018.4 0.0
26/04:30pm 26.5 23.6 12.9 43 7.9 SE 20 26 11 14 1018.8 1018.8 0.0
26/04:00pm 26.3 23.7 13.1 44 7.7 SE 19 24 10 13 1019.1 1019.1 0.0
26/03:30pm 26.0 23.2 13.2 45 7.5 ESE 20 26 11 14 1019.4 1019.4 0.0
26/03:00pm 25.9 23.2 13.4 46 7.3 ESE 20 26 11 14 1019.8 1019.8 0.0
26/02:30pm 25.0 22.3 13.5 48 6.7 ESE 20 26 11 14 1020.1 1020.1 0.0
26/02:00pm 24.6 21.6 13.8 51 6.3 ESE 22 28 12 15 1020.4 1020.4 0.0
26/01:30pm 23.9 21.5 14.3 55 5.7 ESE 20 28 11 15 1020.7 1020.7 0.0
26/01:00pm 22.8 20.3 14.1 58 5.1 ESE 20 28 11 15 1021.0 1021.0 0.0
26/12:30pm 22.4 20.0 14.3 60 4.7 ESE 20 26 11 14 1021.2 1021.2 0.0
26/12:00pm 21.7 19.1 13.9 61 4.5 ESE 20 28 11 15 1021.5 1021.5 0.0
26/11:30am 21.3 18.7 13.7 62 4.4 SE 20 28 11 15 1021.6 1021.6 0.0
26/11:00am 21.4 20.0 14.6 65 4.0 ESE 15 22 8 12 1021.6 1021.6 0.0
26/10:30am 21.0 20.5 13.7 63 4.2 ENE 9 15 5 8 1021.7 1021.7 0.0
26/10:00am 19.6 18.2 13.3 67 3.6 ENE 13 17 7 9 1021.8 1021.8 0.0
26/09:30am 19.0 17.6 13.4 70 3.2 ENE 13 15 7 8 1021.7 1021.7 0.0
26/09:00am 18.4 17.5 13.7 74 2.7 E 11 15 6 8 1021.6 1021.6 0.0
26/08:30am 17.6 17.5 13.3 76 2.4 NNE 6 9 3 5 1021.5 1021.5 0.0
26/08:00am 17.2 16.6 13.5 79 2.1 E 9 13 5 7 1021.4 1021.4 0.0
26/07:30am 16.0 14.1 13.1 83 1.6 E 15 19 8 10 1021.0 1021.0 0.0
26/07:00am 15.5 13.1 12.8 84 1.5 ESE 17 20 9 11 1020.8 1020.8 0.0
26/06:30am 16.2 13.3 12.9 81 1.8 ESE 20 26 11 14 1020.6 1020.6 0.0
26/06:00am 16.2 12.9 12.7 80 1.9 ESE 22 28 12 15 1020.2 1020.2 0.0
26/05:30am 16.6 12.2 12.8 78 2.1 ESE 28 35 15 19 1019.9 1019.9 0.0
26/05:00am 17.1 12.7 13.0 77 2.3 ESE 28 39 15 21 1019.9 1019.9 0.0
26/04:30am 17.6 12.4 12.9 74 2.6 ESE 32 43 17 23 1020.1 1020.1 0.0
26/04:00am 17.8 12.8 13.3 75 2.5 ESE 32 48 17 26 1020.1 1020.1 0.0
26/03:30am 18.0 12.4 13.3 74 2.7 ESE 35 50 19 27 1020.4 1020.4 0.0
26/03:00am 17.9 12.9 13.4 75 2.5 ESE 32 44 17 24 1021.0 1021.0 0.0
26/02:30am 17.7 14.1 14.2 80 2.0 SE 26 33 14 18 1021.1 1021.1 0.0
26/02:00am 17.5 14.7 14.4 82 1.8 SE 22 30 12 16 1021.3 1021.3 0.0
26/01:30am 17.2 14.9 14.7 85 1.4 SE 20 33 11 18 1021.6 1021.6 0.0
26/01:00am 16.8 14.3 14.1 84 1.5 SE 20 28 11 15 1021.7 1021.7 0.0
26/12:30am 16.8 14.3 14.1 84 1.5 SE 20 28 11 15 1021.9 1021.9 0.0
26/12:00am 16.8 14.5 14.1 84 1.5 SE 19 24 10 13 1022.0 1022.0 0.0
 
Date/Time
EDT
Temp
°C
App
Temp
°C
Dew
Point
°C
Rel
Hum
%
Delta-T
°C
Wind Press
QNH
hPa
Press
MSL
hPa
Rain since
9am
mm
Dir  Spd
km/h
Gust
km/h
Spd
kts
Gust
kts
25/11:30pm 17.0 14.9 14.6 86 1.4 SE 19 24 10 13 1022.1 1022.1 0.0
25/11:00pm 17.0 14.9 14.8 87 1.3 SSE 19 26 10 14 1022.3 1022.3 0.0
25/10:30pm 17.4 15.8 15.0 86 1.4 SSE 17 26 9 14 1022.4 1022.4 0.0
25/10:00pm 16.9 15.1 14.4 85 1.4 S 17 22 9 12 1022.4 1022.4 0.0
25/09:30pm 17.2 15.2 13.9 81 1.9 S 17 24 9 13 1022.6 1022.6 0.0
25/09:00pm 17.0 14.7 13.1 78 2.2 SSW 17 22 9 12 1022.4 1022.4 0.0
25/08:30pm 16.5 13.3 11.9 74 2.5 S 20 26 11 14 1022.4 1022.4 0.0
25/08:00pm 16.2 12.2 10.3 68 3.1 S 22 30 12 16 1022.4 1022.4 0.0
25/07:30pm 16.9 12.3 9.6 62 3.8 SSE 24 33 13 18 1022.3 1022.3 0.0
25/07:00pm 17.3 12.0 10.0 62 3.8 SSE 28 37 15 20 1022.4 1022.4 0.0
25/06:30pm 18.1 12.1 10.2 60 4.2 S 32 37 17 20 1022.5 1022.5 0.0
25/06:00pm 18.4 12.5 10.5 60 4.2 S 32 39 17 21 1022.4 1022.4 0.0
25/05:30pm 19.2 13.2 10.2 56 4.8 S 32 43 17 23 1022.4 1022.4 0.0
25/05:00pm 19.2 13.3 9.1 52 5.3 S 30 39 16 21 1022.4 1022.4 0.0
25/04:30pm 20.2 14.2 8.5 47 6.1 S 30 39 16 21 1022.6 1022.6 0.0
25/04:00pm 19.7 13.9 9.6 52 5.3 S 30 43 16 23 1022.8 1022.8 0.0
25/03:30pm 19.9 14.4 9.2 50 5.7 S 28 39 15 21 1022.9 1022.9 0.0
25/03:00pm 19.9 14.3 8.9 49 5.8 SSW 28 39 15 21 1023.2 1023.2 0.0
25/02:30pm 19.4 14.9 8.4 49 5.7 SSW 22 33 12 18 1023.3 1023.3 0.0
25/02:00pm 18.9 14.2 7.7 48 5.7 S 22 35 12 19 1023.5 1023.5 0.0
25/01:30pm 18.8 13.8 8.2 50 5.5 S 24 35 13 19 1024.1 1024.1 0.0
25/01:00pm 18.7 13.3 8.1 50 5.4 S 26 41 14 22 1024.4 1024.4 0.0
25/12:30pm 19.7 14.3 8.1 47 6.0 SSE 26 35 14 19 1024.6 1024.6 0.0
25/12:00pm 19.4 14.4 8.1 48 5.8 S 24 35 13 19 1025.0 1025.0 0.0
25/11:30am 18.4 12.6 6.3 45 6.0 S 26 35 14 19 1025.3 1025.3 0.0
25/11:00am 17.3 11.3 7.1 51 5.1 S 28 35 15 19 1025.5 1025.5 0.0
25/10:30am 17.6 11.3 7.6 52 5.0 S 30 41 16 22 1025.5 1025.5 0.0
25/10:00am 17.6 11.7 7.6 52 5.0 S 28 37 15 20 1025.4 1025.4 0.0
25/09:30am 16.1 10.3 7.8 58 4.2 S 28 35 15 19 1025.3 1025.3 0.0
25/09:00am 15.9 10.2 8.2 60 3.9 S 28 33 15 18 1025.4 1025.4 0.0
25/08:30am 15.5 11.0 8.5 63 3.5 S 22 28 12 15 1025.3 1025.3 0.0
25/08:00am 15.4 11.4 8.9 65 3.3 S 20 28 11 15 1025.1 1025.1 0.0
25/07:30am 15.1 12.2 9.5 69 2.9 S 15 20 8 11 1025.0 1025.0 0.0
25/07:00am 14.4 11.2 8.4 67 3.0 S 15 17 8 9 1024.9 1024.9 0.0
25/06:30am 13.5 10.5 7.5 67 2.9 S 13 17 7 9 1024.5 1024.5 0.0
25/06:00am 13.2 9.3 7.2 67 2.9 S 17 20 9 11 1024.4 1024.4 0.0
25/05:30am 13.6 9.4 7.4 66 3.0 S 19 26 10 14 1024.4 1024.4 0.0
25/05:00am 13.9 9.6 7.7 66 3.0 S 20 26 11 14 1024.4 1024.4 0.0
25/04:30am 13.5 9.9 8.4 71 2.5 S 17 24 9 13 1024.5 1024.5 0.0
25/04:00am 13.8 9.9 8.6 71 2.6 S 19 26 10 14 1024.6 1024.6 0.0
25/03:30am 14.2 10.2 9.0 71 2.6 S 20 28 11 15 1024.8 1024.8 0.0
25/03:00am 14.4 9.6 8.8 69 2.8 S 24 28 13 15 1024.9 1024.9 0.0
25/02:30am 15.5 10.8 9.2 66 3.2 S 24 32 13 17 1025.0 1025.0 0.0
25/02:00am 15.9 11.3 9.6 66 3.3 S 24 32 13 17 1025.2 1025.2 0.0
25/01:30am 15.9 12.4 10.9 72 2.7 S 20 32 11 17 1025.3 1025.3 0.0
25/01:00am 15.7 12.0 11.5 76 2.3 SSE 22 30 12 16 1025.3 1025.3 0.0
25/12:30am 16.0 12.8 11.8 76 2.3 S 20 28 11 15 1025.3 1025.3 0.0
25/12:00am 15.2 12.0 11.2 77 2.1 SSW 19 22 10 12 1025.4 1025.4 0.0
 
Date/Time
EDT
Temp
°C
App
Temp
°C
Dew
Point
°C
Rel
Hum
%
Delta-T
°C
Wind Press
QNH
hPa
Press
MSL
hPa
Rain since
9am
mm
Dir  Spd
km/h
Gust
km/h
Spd
kts
Gust
kts
24/11:30pm 14.9 11.5 10.7 76 2.2 SSW 19 22 10 12 1025.6 1025.6 0.0
24/11:00pm 15.7 12.3 10.5 71 2.7 S 19 26 10 14 1025.7 1025.7 0.0
24/10:30pm 16.4 13.2 11.3 72 2.7 SSW 19 26 10 14 1025.8 1025.8 0.0
24/10:00pm 16.0 12.3 11.4 74 2.5 SSW 22 28 12 15 1026.0 1026.0 0.0
24/09:30pm 16.6 13.6 10.5 67 3.2 SSW 17 22 9 12 1026.0 1026.0 0.0
24/09:00pm 16.2 12.4 9.8 66 3.3 SSW 20 30 11 16 1025.8 1025.8 0.0
24/08:30pm 15.9 12.1 9.8 67 3.2 SSW 20 26 11 14 1025.5 1025.5 0.0
24/08:00pm 16.2 11.9 9.4 64 3.5 S 22 28 12 15 1025.3 1025.3 0.0
24/07:30pm 17.7 12.6 9.1 57 4.5 SSW 26 33 14 18 1025.2 1025.2 0.0
24/07:00pm 18.0 13.1 8.3 53 5.0 SSW 24 32 13 17 1025.1 1025.1 0.0
24/06:30pm 19.0 12.8 9.2 53 5.1 SSW 32 41 17 22 1025.0 1025.0 0.0
24/06:00pm 19.4 13.0 8.4 49 5.7 S 32 41 17 22 1024.8 1024.8 0.0
24/05:30pm 19.3 13.2 9.8 54 5.1 S 32 39 17 21 1024.8 1024.8 0.0
24/05:00pm 19.2 12.9 9.1 52 5.3 S 32 39 17 21 1024.8 1024.8 0.0
24/04:30pm 19.4 13.3 9.6 53 5.2 S 32 39 17 21 1024.8 1024.8 0.0
24/04:00pm 19.4 13.7 9.9 54 5.0 S 30 39 16 21 1024.8 1024.8 0.0
24/03:30pm 19.8 13.6 10.2 54 5.2 S 33 43 18 23 1025.0 1025.0 0.0
24/03:00pm 19.6 14.8 10.3 55 5.0 S 26 35 14 19 1025.1 1025.1 0.0
24/02:30pm 19.6 14.1 9.2 51 5.5 S 28 35 15 19 1025.3 1025.3 0.0
24/02:00pm 19.5 14.6 8.5 49 5.7 S 24 30 13 16 1025.4 1025.4 0.0
24/01:30pm 18.9 14.5 8.8 52 5.3 SSW 22 32 12 17 1025.5 1025.5 0.0
24/01:00pm 18.7 13.8 8.4 51 5.3 SSW 24 32 13 17 1025.5 1025.5 0.0
24/12:30pm 18.4 13.6 8.7 53 5.0 S 24 30 13 16 1025.6 1025.6 0.0
24/12:00pm 18.0 13.5 8.6 54 4.8 S 22 28 12 15 1025.7 1025.7 0.0
24/11:30am 18.6 14.3 8.0 50 5.4 S 20 30 11 16 1025.7 1025.7 0.0
24/11:00am 18.8 14.7 8.5 51 5.3 SSW 20 32 11 17 1025.7 1025.7 0.0

Latest Capital City Observations: Canberra | Sydney | Melbourne | Brisbane | Adelaide | Perth | Hobart | Darwin

Other Formats:

Comma delimited format used in spreadsheet applications
http://www.bom.gov.au/fwo/IDV60901/IDV60901.94854.axf

JavaScript Object Notation format (JSON) in row-major order
http://www.bom.gov.au/fwo/IDV60901/IDV60901.94854.json